createdAt,value
2017-11-16T00:00:39.613Z,9.01
2017-11-16T00:01:42.072Z,8.98
2017-11-16T00:02:44.540Z,8.86
2017-11-16T00:03:47.000Z,9.02
2017-11-16T00:04:49.491Z,8.88
2017-11-16T00:05:51.950Z,8.90
2017-11-16T00:06:54.399Z,8.92
2017-11-16T00:07:56.856Z,9.05
2017-11-16T00:08:59.346Z,9.10
2017-11-16T00:10:01.854Z,9.10
2017-11-16T00:11:04.323Z,9.02
2017-11-16T00:12:06.780Z,8.89
2017-11-16T00:13:09.242Z,8.93
2017-11-16T00:14:11.702Z,8.92
2017-11-16T00:15:14.184Z,8.95
2017-11-16T00:16:16.682Z,8.93
2017-11-16T00:17:19.167Z,8.93
2017-11-16T00:18:21.621Z,9.01
2017-11-16T00:19:24.106Z,8.96
2017-11-16T00:20:26.609Z,9.07
2017-11-16T00:21:29.095Z,8.96
2017-11-16T00:22:31.578Z,8.96
2017-11-16T00:23:34.039Z,9.03
2017-11-16T00:24:36.516Z,9.04
2017-11-16T00:25:39.029Z,9.07
2017-11-16T00:26:41.498Z,8.98
2017-11-16T00:27:43.993Z,8.99
2017-11-16T00:28:46.474Z,8.99
2017-11-16T00:29:48.945Z,8.90
2017-11-16T00:30:51.438Z,8.96
2017-11-16T00:31:53.896Z,8.93
2017-11-16T00:32:56.363Z,9.05
2017-11-16T00:33:58.854Z,8.93
2017-11-16T00:35:01.331Z,8.87
2017-11-16T00:36:03.812Z,8.96
2017-11-16T00:37:06.286Z,8.92
2017-11-16T00:38:08.744Z,8.98
2017-11-16T00:39:11.199Z,8.89
2017-11-16T00:40:13.659Z,9.00
2017-11-16T00:41:16.154Z,8.98
2017-11-16T00:42:18.615Z,8.97
2017-11-16T00:43:21.073Z,8.94
2017-11-16T00:44:23.550Z,8.87
2017-11-16T00:45:26.010Z,8.81
2017-11-16T00:46:28.500Z,8.80
2017-11-16T00:47:30.973Z,8.84
2017-11-16T00:48:33.443Z,8.73
2017-11-16T00:49:35.903Z,8.58
2017-11-16T00:50:38.378Z,8.63
2017-11-16T00:51:40.860Z,8.68
2017-11-16T00:52:43.339Z,8.70
2017-11-16T00:53:45.809Z,8.63
2017-11-16T00:54:48.273Z,8.71
2017-11-16T00:55:50.736Z,8.61
2017-11-16T00:56:53.224Z,8.61
2017-11-16T00:57:55.696Z,8.53
2017-11-16T00:58:58.177Z,8.55
2017-11-16T01:00:00.659Z,8.57
2017-11-16T01:01:03.139Z,8.67
2017-11-16T01:02:05.624Z,8.73
2017-11-16T01:03:08.087Z,8.71
2017-11-16T01:04:10.555Z,8.63
2017-11-16T01:05:13.034Z,8.74
2017-11-16T01:06:15.529Z,8.70
2017-11-16T01:07:18.046Z,8.68
2017-11-16T01:08:20.512Z,8.61
2017-11-16T01:09:22.989Z,8.63
2017-11-16T01:10:25.448Z,8.60
2017-11-16T01:11:27.916Z,8.62
2017-11-16T01:12:30.417Z,8.54
2017-11-16T01:13:32.896Z,8.50
2017-11-16T01:14:35.378Z,8.62
2017-11-16T01:15:37.850Z,8.59
2017-11-16T01:16:40.327Z,8.56
2017-11-16T01:17:42.816Z,8.50
2017-11-16T01:18:45.276Z,8.60
2017-11-16T01:19:47.759Z,8.63
2017-11-16T01:20:50.240Z,8.63
2017-11-16T01:21:52.708Z,8.48
2017-11-16T01:22:55.254Z,8.53
2017-11-16T01:23:57.729Z,8.54
2017-11-16T01:25:00.211Z,8.59
2017-11-16T01:26:02.699Z,8.62
2017-11-16T01:27:05.160Z,8.63
2017-11-16T01:28:07.656Z,8.66
2017-11-16T01:29:10.115Z,8.58
2017-11-16T01:30:12.617Z,8.50
2017-11-16T01:31:15.094Z,8.55
2017-11-16T01:32:17.576Z,8.50
2017-11-16T01:33:20.068Z,8.58
2017-11-16T01:34:22.534Z,8.59
2017-11-16T01:35:24.997Z,8.52
2017-11-16T01:36:27.466Z,8.45
2017-11-16T01:37:29.963Z,8.45
2017-11-16T01:38:32.463Z,8.42
2017-11-16T01:39:34.943Z,8.37
2017-11-16T01:40:37.431Z,8.37
2017-11-16T01:41:39.911Z,8.34
2017-11-16T01:42:42.374Z,8.31
2017-11-16T01:43:44.884Z,8.28
2017-11-16T01:44:47.347Z,8.27
2017-11-16T01:45:49.822Z,8.29
2017-11-16T01:46:52.296Z,8.27
2017-11-16T01:47:54.774Z,8.24
2017-11-16T01:48:57.251Z,8.19
2017-11-16T01:50:00.504Z,8.15
2017-11-16T01:51:02.966Z,8.18
2017-11-16T01:52:05.445Z,8.19
2017-11-16T01:53:07.944Z,8.16
2017-11-16T01:54:10.436Z,8.15
2017-11-16T01:55:12.904Z,8.15
2017-11-16T01:56:15.364Z,8.08
2017-11-16T01:57:17.850Z,8.14
2017-11-16T01:58:20.329Z,8.16
2017-11-16T01:59:22.812Z,8.09
2017-11-16T02:00:25.271Z,8.12
2017-11-16T02:01:27.751Z,8.12
2017-11-16T02:02:40.984Z,8.10
2017-11-16T02:03:43.470Z,8.07
2017-11-16T02:04:45.941Z,8.02
2017-11-16T02:05:48.420Z,8.07
2017-11-16T02:06:50.903Z,8.01
2017-11-16T02:07:53.368Z,7.96
2017-11-16T02:08:55.831Z,8.03
2017-11-16T02:09:58.680Z,8.09
2017-11-16T02:11:01.140Z,8.15
2017-11-16T02:12:03.617Z,8.08
2017-11-16T02:13:06.154Z,8.05
2017-11-16T02:14:08.622Z,8.05
2017-11-16T02:15:11.089Z,8.10
2017-11-16T02:16:13.567Z,8.04
2017-11-16T02:17:16.029Z,8.11
2017-11-16T02:18:18.491Z,8.13
2017-11-16T02:19:20.967Z,8.09
2017-11-16T02:20:23.441Z,8.12
2017-11-16T02:21:25.913Z,8.07
2017-11-16T02:22:28.402Z,8.00
2017-11-16T02:23:30.870Z,8.07
2017-11-16T02:24:33.336Z,8.04
2017-11-16T02:25:35.814Z,7.95
2017-11-16T02:26:38.294Z,7.95
2017-11-16T02:27:40.779Z,8.06
2017-11-16T02:28:43.281Z,7.99
2017-11-16T02:29:45.747Z,7.89
2017-11-16T02:30:48.222Z,7.92
2017-11-16T02:31:50.705Z,8.04
2017-11-16T02:32:53.181Z,7.98
2017-11-16T02:33:55.660Z,8.01
2017-11-16T02:34:58.136Z,7.96
2017-11-16T02:36:00.597Z,8.03
2017-11-16T02:37:03.073Z,8.07
2017-11-16T02:38:05.544Z,8.07
2017-11-16T02:39:08.012Z,8.03
2017-11-16T02:40:10.482Z,8.00
2017-11-16T02:41:12.981Z,8.07
2017-11-16T02:42:15.444Z,8.09
2017-11-16T02:43:17.914Z,8.12
2017-11-16T02:44:20.419Z,8.16
2017-11-16T02:45:22.879Z,8.05
2017-11-16T02:46:25.376Z,8.00
2017-11-16T02:47:27.848Z,8.15
2017-11-16T02:48:30.354Z,8.15
2017-11-16T02:49:32.848Z,8.16
2017-11-16T02:50:35.337Z,8.13
2017-11-16T02:51:37.813Z,8.14
2017-11-16T02:52:40.302Z,8.03
2017-11-16T02:53:42.791Z,8.03
2017-11-16T02:54:45.275Z,7.97
2017-11-16T02:55:47.764Z,7.96
2017-11-16T02:56:50.241Z,8.03
2017-11-16T02:57:52.724Z,7.84
2017-11-16T02:58:55.203Z,7.82
2017-11-16T02:59:57.691Z,7.96
2017-11-16T03:01:00.169Z,7.99
2017-11-16T03:02:02.631Z,8.05
2017-11-16T03:03:05.114Z,8.12
2017-11-16T03:04:07.577Z,8.08
2017-11-16T03:05:10.062Z,8.05
2017-11-16T03:06:12.545Z,7.88
2017-11-16T03:07:15.034Z,7.95
2017-11-16T03:08:17.502Z,7.98
2017-11-16T03:09:19.982Z,7.87
2017-11-16T03:10:22.449Z,7.84
2017-11-16T03:11:24.946Z,7.89
2017-11-16T03:12:27.408Z,7.84
2017-11-16T03:13:29.868Z,7.86
2017-11-16T03:14:32.346Z,7.76
2017-11-16T03:15:34.813Z,7.74
2017-11-16T03:16:37.292Z,7.89
2017-11-16T03:17:39.770Z,7.85
2017-11-16T03:18:42.232Z,7.95
2017-11-16T03:19:44.715Z,7.92
2017-11-16T03:20:47.188Z,7.95
2017-11-16T03:21:49.660Z,7.99
2017-11-16T03:22:52.120Z,8.01
2017-11-16T03:23:54.606Z,7.96
2017-11-16T03:24:57.085Z,7.87
2017-11-16T03:25:59.570Z,7.89
2017-11-16T03:27:02.043Z,7.87
2017-11-16T03:28:04.505Z,7.90
2017-11-16T03:29:06.968Z,7.86
2017-11-16T03:30:09.436Z,7.82
2017-11-16T03:31:11.923Z,7.85
2017-11-16T03:32:14.389Z,7.88
2017-11-16T03:33:16.868Z,7.75
2017-11-16T03:34:19.334Z,7.77
2017-11-16T03:35:21.858Z,7.81
2017-11-16T03:36:24.367Z,7.76
2017-11-16T03:37:26.844Z,7.77
2017-11-16T03:38:29.322Z,7.74
2017-11-16T03:39:31.799Z,7.68
2017-11-16T03:40:34.619Z,7.79
2017-11-16T03:41:37.094Z,7.84
2017-11-16T03:42:39.561Z,7.83
2017-11-16T03:43:42.026Z,7.85
2017-11-16T03:44:44.512Z,7.91
2017-11-16T03:45:46.982Z,7.81
2017-11-16T03:46:49.475Z,7.90
2017-11-16T03:47:51.983Z,7.89
2017-11-16T03:48:54.460Z,7.84
2017-11-16T03:49:56.942Z,7.75
2017-11-16T03:50:59.425Z,7.81
2017-11-16T03:52:01.888Z,7.72
2017-11-16T03:53:04.356Z,7.68
2017-11-16T03:54:06.820Z,7.75
2017-11-16T03:55:09.279Z,7.73
2017-11-16T03:56:12.308Z,7.79
2017-11-16T03:57:14.786Z,7.79
2017-11-16T03:58:17.266Z,7.59
2017-11-16T03:59:19.742Z,7.60
2017-11-16T04:00:22.253Z,7.72
2017-11-16T04:01:24.738Z,7.79
2017-11-16T04:02:27.219Z,7.80
2017-11-16T04:03:29.696Z,7.73
2017-11-16T04:04:32.186Z,7.77
2017-11-16T04:05:34.668Z,7.68
2017-11-16T04:06:37.148Z,7.69
2017-11-16T04:07:39.626Z,7.71
2017-11-16T04:08:42.096Z,7.77
2017-11-16T04:09:44.568Z,7.69
2017-11-16T04:10:47.059Z,7.72
2017-11-16T04:11:49.555Z,7.73
2017-11-16T04:12:52.029Z,7.67
2017-11-16T04:13:54.488Z,7.64
2017-11-16T04:14:56.957Z,7.51
2017-11-16T04:15:59.445Z,7.57
2017-11-16T04:17:01.967Z,7.45
2017-11-16T04:18:10.794Z,7.37
2017-11-16T04:19:13.273Z,7.45
2017-11-16T04:20:15.754Z,7.44
2017-11-16T04:21:18.224Z,7.40
2017-11-16T04:22:20.692Z,7.38
2017-11-16T04:23:23.180Z,7.31
2017-11-16T04:24:25.647Z,7.34
2017-11-16T04:25:28.123Z,7.35
2017-11-16T04:26:30.587Z,7.30
2017-11-16T04:27:33.065Z,7.29
2017-11-16T04:28:35.531Z,7.26
2017-11-16T04:29:38.005Z,7.24
2017-11-16T04:30:40.483Z,7.30
2017-11-16T04:31:42.960Z,7.24
2017-11-16T04:32:45.442Z,7.25
2017-11-16T04:33:47.918Z,7.28
2017-11-16T04:34:50.402Z,7.28
2017-11-16T04:35:52.906Z,7.24
2017-11-16T04:36:55.362Z,7.29
2017-11-16T04:37:57.823Z,7.25
2017-11-16T04:39:00.296Z,7.22
2017-11-16T04:40:02.770Z,7.26
2017-11-16T04:41:05.252Z,7.29
2017-11-16T04:42:07.722Z,7.22
2017-11-16T04:43:10.202Z,7.27
2017-11-16T04:44:12.666Z,7.22
2017-11-16T04:45:17.157Z,7.22
2017-11-16T04:46:19.647Z,7.16
2017-11-16T04:47:22.126Z,7.15
2017-11-16T04:48:24.757Z,7.11
2017-11-16T04:49:27.232Z,7.07
2017-11-16T04:50:29.715Z,7.01
2017-11-16T04:51:32.209Z,7.04
2017-11-16T04:52:34.685Z,7.09
2017-11-16T04:53:37.156Z,7.10
2017-11-16T04:54:39.642Z,7.09
2017-11-16T04:55:42.121Z,7.13
2017-11-16T04:56:44.629Z,7.11
2017-11-16T04:57:47.105Z,7.09
2017-11-16T04:58:49.742Z,7.10
2017-11-16T04:59:52.225Z,7.10
2017-11-16T05:00:54.729Z,7.09
2017-11-16T05:01:57.233Z,7.06
2017-11-16T05:02:59.708Z,6.98
2017-11-16T05:04:02.172Z,6.99
2017-11-16T05:05:04.644Z,6.93
2017-11-16T05:06:07.122Z,6.91
2017-11-16T05:07:09.630Z,6.86
2017-11-16T05:08:12.128Z,6.95
2017-11-16T05:09:14.621Z,6.92
2017-11-16T05:10:17.094Z,6.98
2017-11-16T05:11:19.673Z,7.01
2017-11-16T05:12:22.152Z,7.01
2017-11-16T05:13:24.611Z,6.99
2017-11-16T05:14:27.098Z,6.94
2017-11-16T05:15:29.571Z,6.91
2017-11-16T05:16:32.047Z,6.88
2017-11-16T05:17:34.548Z,6.86
2017-11-16T05:18:37.008Z,6.83
2017-11-16T05:19:39.487Z,6.76
2017-11-16T05:20:41.991Z,6.74
2017-11-16T05:21:44.470Z,6.73
2017-11-16T05:22:46.991Z,6.74
2017-11-16T05:23:49.466Z,6.76
2017-11-16T05:24:51.968Z,6.79
2017-11-16T05:25:54.466Z,6.80
2017-11-16T05:26:56.951Z,6.78
2017-11-16T05:27:59.449Z,6.76
2017-11-16T05:29:01.925Z,6.74
2017-11-16T05:30:04.402Z,6.71
2017-11-16T05:31:06.882Z,6.67
2017-11-16T05:32:09.635Z,6.64
2017-11-16T05:33:12.155Z,6.64
2017-11-16T05:34:14.630Z,6.62
2017-11-16T05:35:17.120Z,6.64
2017-11-16T05:36:19.584Z,6.57
2017-11-16T05:37:22.043Z,6.56
2017-11-16T05:38:24.528Z,6.46
2017-11-16T05:39:26.992Z,6.40
2017-11-16T05:40:29.473Z,6.45
2017-11-16T05:41:31.967Z,6.44
2017-11-16T05:42:34.449Z,6.41
2017-11-16T05:43:36.973Z,6.33
2017-11-16T05:44:39.446Z,6.34
2017-11-16T05:45:41.948Z,6.31
2017-11-16T05:46:44.434Z,6.20
2017-11-16T05:47:46.895Z,6.18
2017-11-16T05:48:49.383Z,6.26
2017-11-16T05:49:51.860Z,6.24
2017-11-16T05:50:54.337Z,6.19
2017-11-16T05:51:56.819Z,6.15
2017-11-16T05:52:59.284Z,6.12
2017-11-16T05:54:01.791Z,6.10
2017-11-16T05:55:04.280Z,6.04
2017-11-16T05:56:06.762Z,6.09
2017-11-16T05:57:09.238Z,6.09
2017-11-16T05:58:11.720Z,6.01
2017-11-16T05:59:14.236Z,6.01
2017-11-16T06:00:17.267Z,5.92
2017-11-16T06:01:19.804Z,6.06
2017-11-16T06:02:22.275Z,6.06
2017-11-16T06:03:24.758Z,6.17
2017-11-16T06:04:27.249Z,6.17
2017-11-16T06:05:29.730Z,6.03
2017-11-16T06:06:32.201Z,6.03
2017-11-16T06:07:34.667Z,6.04
2017-11-16T06:08:37.133Z,5.84
2017-11-16T06:09:39.609Z,5.78
2017-11-16T06:10:42.121Z,5.82
2017-11-16T06:11:44.611Z,5.74
2017-11-16T06:12:47.112Z,5.83
2017-11-16T06:13:49.588Z,5.80
2017-11-16T06:14:52.104Z,5.84
2017-11-16T06:15:54.581Z,5.91
2017-11-16T06:16:57.061Z,5.96
2017-11-16T06:17:59.526Z,5.80
2017-11-16T06:19:02.002Z,5.81
2017-11-16T06:20:04.495Z,5.81
2017-11-16T06:21:07.010Z,5.76
2017-11-16T06:22:09.487Z,5.64
2017-11-16T06:23:11.957Z,5.61
2017-11-16T06:24:14.445Z,5.51
2017-11-16T06:25:17.054Z,5.55
2017-11-16T06:26:19.563Z,5.62
2017-11-16T06:27:22.051Z,5.65
2017-11-16T06:28:24.530Z,5.63
2017-11-16T06:29:27.012Z,5.60
2017-11-16T06:30:29.873Z,5.62
2017-11-16T06:31:32.332Z,5.59
2017-11-16T06:32:34.796Z,5.53
2017-11-16T06:33:37.499Z,5.63
2017-11-16T06:34:39.983Z,5.69
2017-11-16T06:35:42.493Z,5.69
2017-11-16T06:36:44.971Z,5.67
2017-11-16T06:37:47.455Z,5.68
2017-11-16T06:38:49.934Z,5.60
2017-11-16T06:39:52.396Z,5.60
2017-11-16T06:40:54.927Z,5.49
2017-11-16T06:41:57.412Z,5.51
2017-11-16T06:42:59.885Z,5.46
2017-11-16T06:44:02.357Z,5.50
2017-11-16T06:45:04.843Z,5.39
2017-11-16T06:46:07.303Z,5.40
2017-11-16T06:47:09.806Z,5.33
2017-11-16T06:48:12.288Z,5.29
2017-11-16T06:49:14.756Z,5.50
2017-11-16T06:50:17.233Z,5.50
2017-11-16T06:51:19.710Z,5.40
2017-11-16T06:52:22.220Z,5.34
2017-11-16T06:53:24.710Z,5.43
2017-11-16T06:54:27.179Z,5.45
2017-11-16T06:55:30.203Z,5.54
2017-11-16T06:56:32.681Z,5.59
2017-11-16T06:57:35.150Z,5.36
2017-11-16T06:58:37.634Z,5.16
2017-11-16T06:59:40.189Z,5.28
2017-11-16T07:00:42.713Z,5.47
2017-11-16T07:01:45.198Z,5.48
2017-11-16T07:02:47.699Z,5.48
2017-11-16T07:03:50.211Z,5.41
2017-11-16T07:04:52.679Z,5.32
2017-11-16T07:05:55.177Z,5.41
2017-11-16T07:06:58.595Z,5.22
2017-11-16T07:08:01.161Z,5.24
2017-11-16T07:09:03.640Z,5.43
2017-11-16T07:10:06.127Z,5.42
2017-11-16T07:11:08.604Z,5.55
2017-11-16T07:12:11.068Z,5.63
2017-11-16T07:13:13.532Z,5.73
2017-11-16T07:14:16.019Z,5.70
2017-11-16T07:15:18.483Z,5.75
2017-11-16T07:16:20.963Z,5.75
2017-11-16T07:17:23.571Z,5.68
2017-11-16T07:18:26.036Z,5.52
2017-11-16T07:19:28.501Z,5.59
2017-11-16T07:20:31.007Z,5.64
2017-11-16T07:21:33.458Z,5.77
2017-11-16T07:22:35.938Z,5.74
2017-11-16T07:23:38.417Z,5.76
2017-11-16T07:24:40.880Z,5.89
2017-11-16T07:25:43.376Z,5.99
2017-11-16T07:26:45.858Z,6.04
2017-11-16T07:27:48.314Z,6.03
2017-11-16T07:28:50.780Z,6.02
2017-11-16T07:29:53.261Z,6.07
2017-11-16T07:30:55.728Z,6.05
2017-11-16T07:31:58.195Z,5.98
2017-11-16T07:33:00.664Z,5.94
2017-11-16T07:34:03.154Z,5.95
2017-11-16T07:35:05.682Z,6.04
2017-11-16T07:36:08.170Z,6.03
2017-11-16T07:37:10.652Z,5.99
2017-11-16T07:38:13.120Z,6.00
2017-11-16T07:39:15.593Z,6.15
2017-11-16T07:40:18.081Z,6.23
2017-11-16T07:41:20.570Z,6.22
2017-11-16T07:42:23.056Z,6.19
2017-11-16T07:43:25.561Z,6.16
2017-11-16T07:44:28.040Z,6.17
2017-11-16T07:45:30.504Z,6.10
2017-11-16T07:47:34.757Z,6.12
2017-11-16T07:48:37.260Z,6.14
2017-11-16T07:49:39.738Z,6.14
2017-11-16T07:50:42.213Z,6.19
2017-11-16T07:51:44.690Z,6.26
2017-11-16T07:52:47.170Z,6.22
2017-11-16T07:53:49.646Z,6.19
2017-11-16T07:54:52.139Z,6.16
2017-11-16T07:55:54.619Z,6.12
2017-11-16T07:56:57.084Z,6.25
2017-11-16T07:57:59.568Z,6.33
2017-11-16T07:59:02.055Z,6.34
2017-11-16T08:00:04.523Z,6.22
2017-11-16T08:01:07.004Z,6.24
2017-11-16T08:02:09.488Z,6.25
2017-11-16T08:04:13.734Z,6.27
2017-11-16T08:05:16.218Z,6.36
2017-11-16T08:06:18.692Z,6.33
2017-11-16T08:07:21.171Z,6.32
2017-11-16T08:08:23.646Z,6.29
2017-11-16T08:09:26.159Z,6.45
2017-11-16T08:10:28.662Z,6.61
2017-11-16T08:11:31.145Z,6.64
2017-11-16T08:12:33.628Z,6.72
2017-11-16T08:13:36.110Z,6.79
2017-11-16T08:14:38.615Z,6.76
2017-11-16T08:15:41.107Z,6.79
2017-11-16T08:16:43.591Z,6.69
2017-11-16T08:17:46.085Z,6.74
2017-11-16T08:18:48.561Z,6.72
2017-11-16T08:19:51.064Z,6.76
2017-11-16T08:20:53.542Z,6.64
2017-11-16T08:21:56.012Z,6.59
2017-11-16T08:22:58.476Z,6.61
2017-11-16T08:24:00.941Z,6.57
2017-11-16T08:25:03.451Z,6.54
2017-11-16T08:26:05.962Z,6.62
2017-11-16T08:27:08.436Z,6.60
2017-11-16T08:28:10.916Z,6.71
2017-11-16T08:29:13.379Z,6.78
2017-11-16T08:30:15.883Z,6.75
2017-11-16T08:31:18.353Z,6.64
2017-11-16T08:32:20.848Z,6.58
2017-11-16T08:33:23.325Z,6.47
2017-11-16T08:34:25.805Z,6.47
2017-11-16T08:35:28.295Z,6.63
2017-11-16T08:36:30.778Z,6.61
2017-11-16T08:37:33.253Z,6.66
2017-11-16T08:38:35.727Z,6.59
2017-11-16T08:39:38.189Z,6.68
2017-11-16T08:40:40.698Z,6.61
2017-11-16T08:41:43.160Z,6.76
2017-11-16T08:42:45.638Z,6.86
2017-11-16T08:43:48.109Z,6.90
2017-11-16T08:44:50.579Z,6.79
2017-11-16T08:45:53.085Z,6.76
2017-11-16T08:46:55.575Z,6.67
2017-11-16T08:47:58.041Z,6.68
2017-11-16T08:49:00.530Z,6.56
2017-11-16T08:50:02.996Z,6.63
2017-11-16T08:51:05.508Z,6.59
2017-11-16T08:52:08.008Z,6.46
2017-11-16T08:53:10.502Z,6.45
2017-11-16T08:54:12.971Z,6.36
2017-11-16T08:55:15.452Z,6.40
2017-11-16T08:56:17.970Z,6.43
2017-11-16T08:57:20.469Z,6.42
2017-11-16T08:58:22.959Z,6.42
2017-11-16T08:59:25.428Z,6.35
2017-11-16T09:00:27.901Z,6.24
2017-11-16T09:01:30.385Z,6.34
2017-11-16T09:02:32.861Z,6.24
2017-11-16T09:03:35.334Z,6.26
2017-11-16T09:04:37.825Z,6.16
2017-11-16T09:05:40.305Z,6.18
2017-11-16T09:06:42.798Z,6.18
2017-11-16T09:07:45.261Z,6.21
2017-11-16T09:08:47.730Z,6.23
2017-11-16T09:09:50.222Z,6.27
2017-11-16T09:10:52.709Z,6.34
2017-11-16T09:11:55.213Z,6.37
2017-11-16T09:12:57.707Z,6.37
2017-11-16T09:14:00.189Z,6.44
2017-11-16T09:15:02.666Z,6.46
2017-11-16T09:16:05.146Z,6.42
2017-11-16T09:17:07.665Z,6.36
2017-11-16T09:18:10.161Z,6.33
2017-11-16T09:19:12.648Z,6.28
2017-11-16T09:20:15.134Z,6.38
2017-11-16T09:21:17.635Z,6.46
2017-11-16T09:22:20.139Z,6.56
2017-11-16T09:23:22.629Z,6.53
2017-11-16T09:24:25.130Z,6.64
2017-11-16T09:25:27.614Z,6.70
2017-11-16T09:26:30.105Z,6.71
2017-11-16T09:27:32.625Z,6.85
2017-11-16T09:28:35.094Z,6.90
2017-11-16T09:29:37.559Z,6.78
2017-11-16T09:30:40.342Z,6.92
2017-11-16T09:31:43.051Z,6.83
2017-11-16T09:32:45.552Z,6.96
2017-11-16T09:33:48.058Z,7.04
2017-11-16T09:34:50.553Z,7.11
2017-11-16T09:35:53.028Z,7.14
2017-11-16T09:36:55.502Z,7.25
2017-11-16T09:37:58.023Z,7.33
2017-11-16T09:39:00.505Z,7.39
2017-11-16T09:40:03.009Z,7.14
2017-11-16T09:41:05.494Z,7.15
2017-11-16T09:42:07.973Z,7.27
2017-11-16T09:43:10.455Z,7.37
2017-11-16T09:44:12.960Z,7.18
2017-11-16T09:45:15.423Z,7.17
2017-11-16T09:46:17.894Z,7.24
2017-11-16T09:47:20.374Z,7.22
2017-11-16T09:48:22.857Z,7.02
2017-11-16T09:49:25.333Z,7.14
2017-11-16T09:50:27.813Z,7.20
2017-11-16T09:51:30.290Z,7.25
2017-11-16T09:52:32.777Z,7.38
2017-11-16T09:53:35.264Z,7.37
2017-11-16T09:54:37.758Z,7.17
2017-11-16T09:55:40.242Z,7.22
2017-11-16T09:56:42.722Z,7.17
2017-11-16T09:57:45.193Z,7.44
2017-11-16T09:58:47.738Z,7.65
2017-11-16T09:59:50.212Z,7.74
2017-11-16T10:00:52.703Z,7.85
2017-11-16T10:01:55.177Z,7.96
2017-11-16T10:02:57.649Z,8.00
2017-11-16T10:04:00.157Z,8.00
2017-11-16T10:05:02.638Z,7.88
2017-11-16T10:06:05.146Z,7.82
2017-11-16T10:07:07.632Z,7.52
2017-11-16T10:08:10.142Z,7.58
2017-11-16T10:09:12.640Z,7.78
2017-11-16T10:10:15.099Z,7.72
2017-11-16T10:11:17.576Z,7.97
2017-11-16T10:12:20.064Z,8.03
2017-11-16T10:13:22.550Z,7.87
2017-11-16T10:14:25.062Z,7.89
2017-11-16T10:15:27.532Z,8.00
2017-11-16T10:16:30.019Z,8.14
2017-11-16T10:17:32.489Z,8.13
2017-11-16T10:18:35.014Z,7.98
2017-11-16T10:19:37.515Z,7.85
2017-11-16T10:20:39.994Z,7.99
2017-11-16T10:21:42.461Z,7.97
2017-11-16T10:22:44.938Z,7.67
2017-11-16T10:23:47.442Z,7.73
2017-11-16T10:24:49.950Z,7.68
2017-11-16T10:25:52.440Z,7.66
2017-11-16T10:26:54.938Z,7.60
2017-11-16T10:27:57.433Z,7.70
2017-11-16T10:28:59.916Z,7.60
2017-11-16T10:30:02.399Z,7.71
2017-11-16T10:31:04.883Z,7.72
2017-11-16T10:32:07.366Z,7.70
2017-11-16T10:33:09.840Z,7.74
2017-11-16T10:34:12.317Z,8.00
2017-11-16T10:35:14.799Z,8.12
2017-11-16T10:36:17.281Z,8.00
2017-11-16T10:37:19.773Z,8.00
2017-11-16T10:38:22.264Z,8.03
2017-11-16T10:39:24.779Z,8.18
2017-11-16T10:40:27.288Z,8.44
2017-11-16T10:41:29.766Z,8.35
2017-11-16T10:42:32.236Z,8.52
2017-11-16T10:43:34.705Z,8.42
2017-11-16T10:44:37.187Z,8.42
2017-11-16T10:45:39.697Z,8.42
2017-11-16T10:46:42.190Z,8.39
2017-11-16T10:47:44.675Z,8.32
2017-11-16T10:48:47.148Z,8.35
2017-11-16T10:49:49.616Z,8.44
2017-11-16T10:50:52.099Z,8.47
2017-11-16T10:51:54.579Z,8.70
2017-11-16T10:52:57.063Z,8.82
2017-11-16T10:53:59.564Z,9.11
2017-11-16T10:55:02.048Z,9.15
2017-11-16T10:56:04.543Z,9.01
2017-11-16T10:57:07.027Z,9.21
2017-11-16T10:58:09.511Z,9.30
2017-11-16T10:59:11.988Z,9.32
2017-11-16T11:00:14.482Z,9.20
2017-11-16T11:01:16.979Z,9.21
2017-11-16T11:02:19.477Z,9.20
2017-11-16T11:03:21.952Z,8.97
2017-11-16T11:04:24.421Z,8.81
2017-11-16T11:05:26.897Z,8.93
2017-11-16T11:06:29.391Z,9.06
2017-11-16T11:07:31.900Z,9.01
2017-11-16T11:08:34.408Z,8.84
2017-11-16T11:09:36.876Z,8.71
2017-11-16T11:10:39.363Z,8.65
2017-11-16T11:11:41.827Z,8.53
2017-11-16T11:12:44.292Z,8.52
2017-11-16T11:13:46.770Z,8.43
2017-11-16T11:14:49.279Z,8.23
2017-11-16T11:15:51.757Z,8.19
2017-11-16T11:16:54.229Z,8.32
2017-11-16T11:17:56.688Z,8.27
2017-11-16T11:18:59.175Z,8.21
2017-11-16T11:20:01.664Z,8.26
2017-11-16T11:21:04.132Z,8.39
2017-11-16T11:22:06.634Z,8.34
2017-11-16T11:23:09.128Z,8.23
2017-11-16T11:24:11.618Z,8.27
2017-11-16T11:25:14.098Z,8.38
2017-11-16T11:26:16.583Z,8.37
2017-11-16T11:27:19.095Z,8.26
2017-11-16T11:28:21.588Z,8.17
2017-11-16T11:29:24.075Z,8.18
2017-11-16T11:30:26.547Z,8.32
2017-11-16T11:31:29.027Z,8.41
2017-11-16T11:32:31.519Z,8.38
2017-11-16T11:33:33.988Z,8.13
2017-11-16T11:34:36.470Z,8.16
2017-11-16T11:35:38.947Z,8.21
2017-11-16T11:36:41.429Z,8.24
2017-11-16T11:37:43.913Z,8.23
2017-11-16T11:38:46.389Z,8.33
2017-11-16T11:39:48.875Z,8.42
2017-11-16T11:40:51.353Z,8.59
2017-11-16T11:41:53.834Z,8.58
2017-11-16T11:42:56.303Z,8.36
2017-11-16T11:43:58.785Z,8.63
2017-11-16T11:45:01.276Z,8.59
2017-11-16T11:46:03.767Z,8.50
2017-11-16T11:47:06.236Z,8.48
2017-11-16T11:48:08.728Z,8.52
2017-11-16T11:49:11.213Z,8.57
2017-11-16T11:50:13.697Z,8.49
2017-11-16T11:51:16.243Z,8.52
2017-11-16T11:52:18.715Z,8.39
2017-11-16T11:53:21.216Z,8.49
2017-11-16T11:54:23.698Z,8.57
2017-11-16T11:55:26.177Z,8.55
2017-11-16T11:56:28.679Z,8.65
2017-11-16T11:57:31.163Z,8.75
2017-11-16T11:58:33.667Z,8.76
2017-11-16T11:59:36.137Z,8.72
2017-11-16T12:00:38.614Z,8.71
2017-11-16T12:01:41.083Z,8.65
2017-11-16T12:02:43.562Z,8.76
2017-11-16T12:03:46.052Z,8.68
2017-11-16T12:04:48.540Z,8.65
2017-11-16T12:05:51.004Z,8.54
2017-11-16T12:06:53.485Z,8.59
2017-11-16T12:07:55.950Z,8.74
2017-11-16T12:08:58.456Z,8.95
2017-11-16T12:10:00.938Z,8.78
2017-11-16T12:11:03.412Z,8.97
2017-11-16T12:12:05.900Z,8.90
2017-11-16T12:13:08.361Z,8.87
2017-11-16T12:14:10.859Z,8.86
2017-11-16T12:15:13.320Z,9.10
2017-11-16T12:16:15.817Z,8.83
2017-11-16T12:17:18.490Z,8.90
2017-11-16T12:18:20.953Z,9.21
2017-11-16T12:19:23.449Z,9.58
2017-11-16T12:20:25.934Z,9.90
2017-11-16T12:21:28.442Z,10.19
2017-11-16T12:22:30.912Z,10.25
2017-11-16T12:23:33.402Z,10.32
2017-11-16T12:24:35.885Z,10.43
2017-11-16T12:25:38.384Z,10.42
2017-11-16T12:26:40.871Z,10.24
2017-11-16T12:27:43.379Z,10.46
2017-11-16T12:28:45.844Z,10.24
2017-11-16T12:29:48.378Z,10.31
2017-11-16T12:30:50.872Z,10.15
2017-11-16T12:31:53.340Z,9.71
2017-11-16T12:32:56.041Z,9.68
2017-11-16T12:33:58.528Z,10.29
2017-11-16T12:35:01.207Z,9.75
2017-11-16T12:36:03.891Z,9.72
2017-11-16T12:37:06.690Z,9.90
2017-11-16T12:38:09.596Z,9.88
2017-11-16T12:39:12.455Z,10.21
2017-11-16T12:40:15.265Z,10.30
2017-11-16T12:41:17.764Z,10.36
2017-11-16T12:42:21.987Z,10.45
2017-11-16T12:43:24.490Z,10.43
2017-11-16T12:44:26.956Z,10.29
2017-11-16T12:45:29.449Z,10.12
2017-11-16T12:46:31.932Z,10.01
2017-11-16T12:47:34.443Z,9.77
2017-11-16T12:48:36.928Z,9.64
2017-11-16T12:49:39.426Z,9.61
2017-11-16T12:50:41.930Z,9.34
2017-11-16T12:51:44.430Z,9.72
2017-11-16T12:52:46.914Z,9.91
2017-11-16T12:53:49.412Z,10.05
2017-11-16T12:54:51.893Z,10.15
2017-11-16T12:55:54.617Z,10.19
2017-11-16T12:56:57.112Z,10.17
2017-11-16T12:57:59.592Z,10.34
2017-11-16T12:59:02.097Z,10.20
2017-11-16T13:00:04.588Z,10.43
2017-11-16T13:01:07.072Z,11.03
2017-11-16T13:02:09.557Z,11.56
2017-11-16T13:03:12.040Z,11.72
2017-11-16T13:04:14.570Z,12.04
2017-11-16T13:05:17.045Z,12.21
2017-11-16T13:06:19.553Z,12.18
2017-11-16T13:07:22.029Z,12.31
2017-11-16T13:08:24.513Z,12.67
2017-11-16T13:09:26.998Z,13.17
2017-11-16T13:10:29.477Z,12.93
2017-11-16T13:11:31.991Z,13.00
2017-11-16T13:12:34.457Z,12.34
2017-11-16T13:13:37.598Z,12.36
2017-11-16T13:14:40.069Z,12.52
2017-11-16T13:15:42.539Z,13.33
2017-11-16T13:16:45.074Z,13.83
2017-11-16T13:17:47.544Z,13.52
2017-11-16T13:18:50.069Z,13.63
2017-11-16T13:19:52.550Z,13.14
2017-11-16T13:20:55.025Z,12.75
2017-11-16T13:21:57.544Z,12.24
2017-11-16T13:23:00.048Z,11.60
2017-11-16T13:24:02.553Z,10.92
2017-11-16T13:25:05.024Z,10.76
2017-11-16T13:26:07.498Z,10.56
2017-11-16T13:27:10.252Z,9.88
2017-11-16T13:28:12.772Z,9.75
2017-11-16T13:29:15.237Z,9.74
2017-11-16T13:30:17.726Z,9.71
2017-11-16T13:31:20.191Z,9.57
2017-11-16T13:32:22.694Z,9.51
2017-11-16T13:33:25.172Z,9.63
2017-11-16T13:34:27.661Z,9.61
2017-11-16T13:35:30.133Z,9.55
2017-11-16T13:36:32.613Z,9.52
2017-11-16T13:37:35.121Z,9.36
2017-11-16T13:38:37.617Z,9.32
2017-11-16T13:39:40.119Z,9.33
2017-11-16T13:40:42.584Z,9.21
2017-11-16T13:41:45.066Z,9.21
2017-11-16T13:42:47.575Z,9.12
2017-11-16T13:43:50.078Z,9.18
2017-11-16T13:44:52.579Z,9.09
2017-11-16T13:45:55.061Z,9.02
2017-11-16T13:46:57.554Z,8.99
2017-11-16T13:48:00.064Z,9.02
2017-11-16T13:49:02.545Z,8.93
2017-11-16T13:50:05.039Z,8.94
2017-11-16T13:51:07.512Z,9.10
2017-11-16T13:52:09.973Z,9.19